createdAt,value
2023-05-23T00:01:37.763Z,7.55
2023-05-23T00:04:40.791Z,7.57
2023-05-23T00:07:43.696Z,7.80
2023-05-23T00:10:46.626Z,7.40
2023-05-23T00:13:51.379Z,7.47
2023-05-23T00:16:55.582Z,7.07
2023-05-23T00:19:58.476Z,8.75
2023-05-23T00:23:01.378Z,8.55
2023-05-23T00:26:04.853Z,7.60
2023-05-23T00:29:07.825Z,8.77
2023-05-23T00:32:12.239Z,7.45
2023-05-23T00:35:15.237Z,6.97
2023-05-23T00:38:18.184Z,9.65
2023-05-23T00:41:21.063Z,7.93
2023-05-23T00:44:24.052Z,7.80
2023-05-23T00:47:28.185Z,8.15
2023-05-23T00:50:31.653Z,7.55
2023-05-23T00:53:36.216Z,8.43
2023-05-23T00:56:40.120Z,8.23
2023-05-23T00:59:44.375Z,8.63
2023-05-23T01:02:52.064Z,8.27
2023-05-23T01:05:55.650Z,8.30
2023-05-23T01:09:01.984Z,6.90
2023-05-23T01:12:18.212Z,7.72
2023-05-23T01:15:24.904Z,7.57
2023-05-23T01:18:34.684Z,7.78
2023-05-23T01:21:39.430Z,8.10
2023-05-23T01:24:52.712Z,8.77
2023-05-23T01:28:01.609Z,7.82
2023-05-23T01:31:08.138Z,8.63
2023-05-23T01:34:11.586Z,7.72
2023-05-23T01:37:14.824Z,8.57
2023-05-23T01:40:17.808Z,8.50
2023-05-23T01:43:22.606Z,7.40
2023-05-23T01:46:26.416Z,8.20
2023-05-23T01:49:31.104Z,7.35
2023-05-23T01:52:34.408Z,7.90
2023-05-23T01:55:37.349Z,6.88
2023-05-23T01:58:41.716Z,6.95
2023-05-23T02:01:44.737Z,8.23
2023-05-23T02:04:47.528Z,9.38
2023-05-23T02:07:50.535Z,6.68
2023-05-23T02:10:53.339Z,7.33
2023-05-23T02:13:57.619Z,7.68
2023-05-23T02:17:00.706Z,7.60
2023-05-23T02:20:04.019Z,7.35
2023-05-23T02:23:07.162Z,7.25
2023-05-23T02:26:09.918Z,7.53
2023-05-23T02:29:14.259Z,8.23
2023-05-23T02:32:17.262Z,7.55
2023-05-23T02:35:20.080Z,8.00
2023-05-23T02:38:22.990Z,7.55
2023-05-23T02:41:25.801Z,8.10
2023-05-23T02:44:30.135Z,8.20
2023-05-23T02:47:33.069Z,7.60
2023-05-23T02:50:35.852Z,8.48
2023-05-23T02:53:39.584Z,8.65
2023-05-23T02:56:42.376Z,7.90
2023-05-23T02:59:46.496Z,8.70
2023-05-23T03:02:49.400Z,8.73
2023-05-23T03:05:52.263Z,7.05
2023-05-23T03:08:55.104Z,8.68
2023-05-23T03:11:57.884Z,7.67
2023-05-23T03:15:02.105Z,6.82
2023-05-23T03:18:05.489Z,7.95
2023-05-23T03:21:08.337Z,7.82
2023-05-23T03:24:11.860Z,7.90
2023-05-23T03:27:14.681Z,8.40
2023-05-23T03:30:19.112Z,7.50
2023-05-23T03:33:22.124Z,8.18
2023-05-23T03:36:28.393Z,8.48
2023-05-23T03:39:31.383Z,7.50
2023-05-23T03:42:34.271Z,8.07
2023-05-23T03:45:38.733Z,7.63
2023-05-23T03:48:41.862Z,8.70
2023-05-23T03:51:45.916Z,7.68
2023-05-23T03:54:48.850Z,7.75
2023-05-23T03:57:52.284Z,8.17
2023-05-23T04:00:56.598Z,7.45
2023-05-23T04:04:00.541Z,8.32
2023-05-23T04:07:05.627Z,7.88
2023-05-23T04:10:10.032Z,7.20
2023-05-23T04:13:12.922Z,7.70
2023-05-23T04:16:17.175Z,8.43
2023-05-23T04:19:20.151Z,7.85
2023-05-23T04:22:23.181Z,8.02
2023-05-23T04:25:26.297Z,9.88
2023-05-23T04:28:29.030Z,7.93
2023-05-23T04:31:34.044Z,7.78
2023-05-23T04:34:38.091Z,8.68
2023-05-23T04:37:42.485Z,7.82
2023-05-23T04:40:45.381Z,7.93
2023-05-23T04:43:48.166Z,7.50
2023-05-23T04:46:56.797Z,8.43
2023-05-23T04:50:00.632Z,8.48
2023-05-23T04:53:04.673Z,8.25
2023-05-23T04:56:09.887Z,9.15
2023-05-23T04:59:13.467Z,8.00
2023-05-23T05:05:38.160Z,8.27
2023-05-23T05:08:41.789Z,7.18
2023-05-23T05:11:44.676Z,8.35
2023-05-23T05:14:47.447Z,8.37
2023-05-23T05:17:51.742Z,7.60
2023-05-23T05:20:54.753Z,10.55
2023-05-23T05:23:57.565Z,8.65
2023-05-23T05:27:00.460Z,8.07
2023-05-23T05:30:06.037Z,7.97
2023-05-23T05:33:10.332Z,7.80
2023-05-23T05:36:13.498Z,9.00
2023-05-23T05:39:16.365Z,8.63
2023-05-23T05:42:19.126Z,8.30
2023-05-23T05:45:21.908Z,8.23
2023-05-23T05:48:26.179Z,8.90
2023-05-23T05:51:29.391Z,9.55
2023-05-23T05:54:32.221Z,8.27
2023-05-23T05:57:35.311Z,8.88
2023-05-23T06:00:42.567Z,9.57
2023-05-23T06:03:47.254Z,9.02
2023-05-23T06:06:50.457Z,7.82
2023-05-23T06:09:53.377Z,9.00
2023-05-23T06:12:56.568Z,10.40
2023-05-23T06:15:59.440Z,8.80
2023-05-23T06:19:03.749Z,8.10
2023-05-23T06:22:06.805Z,8.57
2023-05-23T06:25:09.781Z,9.55
2023-05-23T06:28:12.680Z,8.48
2023-05-23T06:31:15.535Z,9.33
2023-05-23T06:34:19.835Z,9.32
2023-05-23T06:37:22.618Z,8.82
2023-05-23T06:40:25.633Z,9.02
2023-05-23T06:43:28.568Z,11.98
2023-05-23T06:46:31.354Z,9.20
2023-05-23T06:49:35.674Z,9.65
2023-05-23T06:52:38.728Z,9.88
2023-05-23T06:55:41.547Z,10.73
2023-05-23T06:58:47.000Z,13.15
2023-05-23T07:04:30.644Z,8.55
2023-05-23T07:07:33.410Z,9.53
2023-05-23T07:10:36.331Z,9.18
2023-05-23T07:13:39.239Z,8.93
2023-05-23T07:16:42.095Z,8.90
2023-05-23T07:19:47.111Z,10.38
2023-05-23T07:22:51.508Z,9.03
2023-05-23T07:29:03.755Z,9.80
2023-05-23T07:32:07.190Z,11.38
2023-05-23T07:35:11.569Z,9.80
2023-05-23T07:38:14.352Z,9.63
2023-05-23T07:41:17.142Z,9.85
2023-05-23T07:44:22.260Z,7.88
2023-05-23T07:47:27.708Z,9.95
2023-05-23T07:50:32.001Z,10.50
2023-05-23T07:53:35.028Z,22.43
2023-05-23T07:56:39.347Z,11.13
2023-05-23T07:59:42.103Z,10.38
2023-05-23T08:02:45.022Z,10.45
2023-05-23T08:05:50.000Z,10.23
2023-05-23T08:08:53.149Z,7.80
2023-05-23T08:11:56.080Z,11.27
2023-05-23T08:14:58.857Z,8.18
2023-05-23T08:18:01.875Z,9.23
2023-05-23T08:21:06.702Z,8.75
2023-05-23T08:24:09.424Z,10.63
2023-05-23T08:27:12.353Z,10.20
2023-05-23T08:30:16.028Z,9.98
2023-05-23T08:33:18.975Z,9.77
2023-05-23T08:36:23.435Z,18.33
2023-05-23T08:39:26.231Z,9.50
2023-05-23T08:42:29.298Z,9.50
2023-05-23T08:45:32.270Z,8.77
2023-05-23T08:48:39.168Z,9.88
2023-05-23T08:51:44.913Z,9.98
2023-05-23T08:54:47.835Z,10.00
2023-05-23T08:57:50.828Z,8.85
2023-05-23T09:00:53.944Z,9.52
2023-05-23T09:04:00.312Z,9.18
2023-05-23T09:07:05.512Z,10.90
2023-05-23T09:10:11.314Z,10.20
2023-05-23T09:13:14.297Z,9.07
2023-05-23T09:16:18.036Z,10.00
2023-05-23T09:19:21.165Z,9.63
2023-05-23T09:22:28.920Z,21.25
2023-05-23T09:25:32.406Z,8.90
2023-05-23T09:28:36.297Z,48.42
2023-05-23T09:31:39.082Z,11.65
2023-05-23T09:34:43.434Z,9.40
2023-05-23T09:37:47.587Z,10.32
2023-05-23T09:40:50.413Z,11.90
2023-05-23T09:43:54.297Z,8.85
2023-05-23T09:46:57.140Z,15.82
2023-05-23T09:50:00.265Z,11.77
2023-05-23T09:53:04.452Z,9.13
2023-05-23T09:56:12.589Z,9.10
2023-05-23T09:59:17.360Z,14.82
2023-05-23T10:02:41.592Z,11.60
2023-05-23T10:05:47.387Z,10.20
2023-05-23T10:08:56.358Z,10.40
2023-05-23T10:12:37.054Z,9.73
2023-05-23T10:15:42.224Z,8.48
2023-05-23T10:18:46.064Z,10.07
2023-05-23T10:21:52.343Z,13.68
2023-05-23T10:24:56.652Z,11.48
2023-05-23T10:28:04.168Z,10.87
2023-05-23T10:31:07.734Z,11.30
2023-05-23T10:34:19.865Z,13.90
2023-05-23T10:37:28.599Z,12.48
2023-05-23T10:40:45.753Z,12.75
2023-05-23T10:43:56.283Z,13.80
2023-05-23T10:47:02.433Z,13.98
2023-05-23T10:50:06.085Z,13.95
2023-05-23T10:53:11.295Z,13.02
2023-05-23T10:56:23.812Z,16.25
2023-05-23T10:59:29.437Z,13.40
2023-05-23T11:02:32.489Z,14.80
2023-05-23T11:05:38.766Z,16.52
2023-05-23T11:08:48.902Z,13.60
2023-05-23T11:12:00.854Z,17.08
2023-05-23T11:15:03.816Z,17.77
2023-05-23T11:18:07.831Z,24.38
2023-05-23T11:21:11.488Z,17.80
2023-05-23T11:24:14.403Z,16.33
2023-05-23T11:27:20.193Z,19.45
2023-05-23T11:30:23.002Z,16.53
2023-05-23T11:33:25.872Z,16.08
2023-05-23T11:36:29.036Z,16.73
2023-05-23T11:39:31.989Z,16.50
2023-05-23T11:42:42.894Z,16.52
2023-05-23T11:45:47.560Z,16.43
2023-05-23T11:48:51.320Z,15.50
2023-05-23T11:51:54.761Z,15.38
2023-05-23T11:55:02.030Z,16.23
2023-05-23T11:58:07.829Z,14.43
2023-05-23T12:01:11.862Z,18.73
2023-05-23T12:04:14.724Z,18.67
2023-05-23T12:07:23.457Z,17.27
2023-05-23T12:10:29.336Z,18.13
2023-05-23T12:13:33.684Z,17.35
2023-05-23T12:16:37.773Z,16.97
2023-05-23T12:19:47.940Z,18.27
2023-05-23T12:22:50.727Z,18.60
2023-05-23T12:25:54.349Z,18.92
2023-05-23T12:29:00.336Z,17.63
2023-05-23T12:32:04.779Z,16.63
2023-05-23T12:35:08.810Z,17.73
2023-05-23T12:38:16.481Z,15.70
2023-05-23T12:41:20.573Z,15.93
2023-05-23T12:44:24.884Z,15.38
2023-05-23T12:47:27.925Z,16.03
2023-05-23T12:50:31.132Z,15.68
2023-05-23T12:53:34.054Z,15.73
2023-05-23T12:56:36.883Z,15.13
2023-05-23T12:59:41.198Z,14.85
2023-05-23T13:02:44.223Z,18.23
2023-05-23T13:05:47.247Z,17.73
2023-05-23T13:08:50.923Z,18.13
2023-05-23T13:11:54.176Z,16.95
2023-05-23T13:14:59.039Z,20.98
2023-05-23T13:18:02.684Z,19.23
2023-05-23T13:21:06.639Z,17.80
2023-05-23T13:24:10.310Z,15.57
2023-05-23T13:27:13.284Z,16.90
2023-05-23T13:30:18.068Z,18.85
2023-05-23T13:33:22.122Z,20.77
2023-05-23T13:36:25.457Z,21.30
2023-05-23T13:39:28.284Z,23.73
2023-05-23T13:42:31.118Z,20.80
2023-05-23T13:45:35.493Z,20.83
2023-05-23T13:48:38.310Z,22.50
2023-05-23T13:51:43.232Z,20.92
2023-05-23T13:54:46.417Z,21.25
2023-05-23T13:57:49.279Z,20.00
2023-05-23T14:00:54.223Z,22.02
2023-05-23T14:03:57.244Z,17.43
2023-05-23T14:06:59.968Z,18.40
2023-05-23T14:10:02.938Z,18.25
2023-05-23T14:13:05.852Z,17.02
2023-05-23T14:16:10.049Z,17.27
2023-05-23T14:19:12.918Z,17.33
2023-05-23T14:22:15.949Z,16.75
2023-05-23T14:25:19.073Z,17.98
2023-05-23T14:28:21.810Z,15.23
2023-05-23T14:31:26.210Z,16.83
2023-05-23T14:34:29.125Z,16.87
2023-05-23T14:37:31.961Z,16.77
2023-05-23T14:40:34.859Z,15.20
2023-05-23T14:43:37.698Z,12.68
2023-05-23T14:46:48.425Z,12.85
2023-05-23T14:49:51.266Z,9.53
2023-05-23T14:52:54.131Z,12.60
2023-05-23T14:55:57.021Z,10.65
2023-05-23T14:59:00.961Z,9.57
2023-05-23T15:02:06.379Z,10.27
2023-05-23T15:05:10.028Z,9.30
2023-05-23T15:08:12.927Z,10.88
2023-05-23T15:11:15.829Z,10.82
2023-05-23T15:14:18.682Z,13.30
2023-05-23T15:17:25.781Z,12.18
2023-05-23T15:20:29.783Z,10.87
2023-05-23T15:23:32.505Z,13.77
2023-05-23T15:26:35.886Z,9.63
2023-05-23T15:29:40.698Z,14.07
2023-05-23T15:32:44.946Z,12.15
2023-05-23T15:35:47.664Z,12.87
2023-05-23T15:38:50.446Z,12.90
2023-05-23T15:41:53.366Z,12.50
2023-05-23T15:44:56.193Z,10.35
2023-05-23T15:48:00.707Z,11.05
2023-05-23T15:51:03.826Z,10.13
2023-05-23T15:54:06.913Z,13.27
2023-05-23T15:57:09.687Z,9.27
2023-05-23T16:00:13.678Z,10.85
2023-05-23T16:03:18.013Z,8.90
2023-05-23T16:06:21.010Z,10.13
2023-05-23T16:09:23.926Z,9.55
2023-05-23T16:12:26.712Z,10.48
2023-05-23T16:15:29.511Z,8.20
2023-05-23T16:18:33.844Z,9.55
2023-05-23T16:21:36.701Z,10.67
2023-05-23T16:24:39.592Z,7.60
2023-05-23T16:27:42.748Z,8.75
2023-05-23T16:30:45.580Z,9.53
2023-05-23T16:33:49.778Z,10.60
2023-05-23T16:36:52.559Z,9.43
2023-05-23T16:39:55.482Z,7.70
2023-05-23T16:42:58.505Z,12.05
2023-05-23T16:46:01.368Z,10.33
2023-05-23T16:49:05.635Z,9.05
2023-05-23T16:52:08.403Z,7.97
2023-05-23T16:55:11.533Z,6.15
2023-05-23T16:58:14.504Z,6.97
2023-05-23T17:01:17.343Z,6.43
2023-05-23T17:04:21.639Z,5.70
2023-05-23T17:07:24.420Z,7.43
2023-05-23T17:10:27.242Z,6.57
2023-05-23T17:13:30.132Z,5.25
2023-05-23T17:16:33.568Z,5.20
2023-05-23T17:19:38.076Z,6.82
2023-05-23T17:22:41.799Z,5.45
2023-05-23T17:25:44.696Z,7.40
2023-05-23T17:28:47.617Z,6.28
2023-05-23T17:31:50.455Z,5.23
2023-05-23T17:34:54.982Z,5.60
2023-05-23T17:37:58.305Z,9.20
2023-05-23T17:41:01.560Z,7.30
2023-05-23T17:44:04.402Z,7.72
2023-05-23T17:47:07.623Z,8.70
2023-05-23T17:50:13.181Z,7.05
2023-05-23T17:53:15.974Z,6.47
2023-05-23T17:56:18.851Z,8.35
2023-05-23T17:59:21.929Z,8.95
2023-05-23T18:02:24.816Z,8.33
2023-05-23T18:05:29.133Z,6.53
2023-05-23T18:08:31.887Z,7.32
2023-05-23T18:11:34.869Z,7.18
2023-05-23T18:14:39.457Z,7.53
2023-05-23T18:17:42.383Z,8.00
2023-05-23T18:20:47.173Z,8.45
2023-05-23T18:23:49.967Z,7.93
2023-05-23T18:26:52.794Z,10.27
2023-05-23T18:29:55.694Z,9.50
2023-05-23T18:32:58.997Z,9.17
2023-05-23T18:36:03.551Z,8.13
2023-05-23T18:39:06.623Z,6.88
2023-05-23T18:42:09.597Z,7.80
2023-05-23T18:45:15.484Z,8.48
2023-05-23T18:48:18.238Z,9.23
2023-05-23T18:51:22.492Z,6.88
2023-05-23T18:54:25.477Z,8.07
2023-05-23T18:57:28.690Z,8.25
2023-05-23T19:00:31.593Z,8.73
2023-05-23T19:03:36.692Z,8.20
2023-05-23T19:06:41.056Z,7.53
2023-05-23T19:09:43.801Z,7.75
2023-05-23T19:12:46.637Z,7.32
2023-05-23T19:15:50.455Z,5.25
2023-05-23T19:18:53.285Z,10.47
2023-05-23T19:21:57.471Z,7.82
2023-05-23T19:25:00.224Z,9.05
2023-05-23T19:28:03.143Z,7.35
2023-05-23T19:31:07.737Z,7.03
2023-05-23T19:34:10.713Z,7.13
2023-05-23T19:37:14.970Z,5.90
2023-05-23T19:40:17.854Z,6.93
2023-05-23T19:43:21.043Z,6.95
2023-05-23T19:46:24.024Z,9.02
2023-05-23T19:49:26.866Z,8.57
2023-05-23T19:52:31.001Z,7.13
2023-05-23T19:55:33.824Z,8.82
2023-05-23T19:58:36.571Z,7.00
2023-05-23T20:01:39.473Z,9.90
2023-05-23T20:04:42.336Z,10.20
2023-05-23T20:07:47.004Z,7.40
2023-05-23T20:10:49.773Z,11.02
2023-05-23T20:13:52.676Z,8.13
2023-05-23T20:16:56.192Z,9.07
2023-05-23T20:19:59.374Z,11.33
2023-05-23T20:23:03.938Z,10.50
2023-05-23T20:26:09.486Z,9.40
2023-05-23T20:29:12.606Z,11.40
2023-05-23T20:32:15.555Z,10.25
2023-05-23T20:35:18.428Z,9.67
2023-05-23T20:38:24.698Z,10.50
2023-05-23T20:41:29.651Z,11.30
2023-05-23T20:44:32.712Z,8.20
2023-05-23T20:47:37.480Z,10.50
2023-05-23T20:50:40.664Z,7.33
2023-05-23T20:53:45.293Z,7.63
2023-05-23T20:56:48.221Z,7.85
2023-05-23T20:59:50.990Z,7.70
2023-05-23T21:02:54.111Z,11.43
2023-05-23T21:05:56.950Z,11.13
2023-05-23T21:09:01.211Z,12.82
2023-05-23T21:12:04.065Z,9.43
2023-05-23T21:15:09.757Z,12.43
2023-05-23T21:18:12.638Z,7.95
2023-05-23T21:21:15.614Z,9.40
2023-05-23T21:24:19.934Z,7.28
2023-05-23T21:27:22.794Z,9.15
2023-05-23T21:30:26.422Z,8.45
2023-05-23T21:33:29.349Z,9.70
2023-05-23T21:36:33.161Z,9.52
2023-05-23T21:39:50.667Z,8.68
2023-05-23T21:42:54.480Z,7.97
2023-05-23T21:45:57.397Z,8.32
2023-05-23T21:49:01.808Z,7.10
2023-05-23T21:52:05.008Z,10.02
2023-05-23T21:55:09.247Z,8.77
2023-05-23T21:58:12.887Z,12.77
2023-05-23T22:01:15.845Z,7.32
2023-05-23T22:04:20.259Z,9.13
2023-05-23T22:07:25.257Z,9.85
2023-05-23T22:10:31.639Z,11.50
2023-05-23T22:13:34.566Z,10.02
2023-05-23T22:16:39.678Z,9.15
2023-05-23T22:19:42.904Z,11.23
2023-05-23T22:22:45.848Z,9.10
2023-05-23T22:25:50.215Z,7.13
2023-05-23T22:28:53.760Z,7.53
2023-05-23T22:31:56.691Z,7.55
2023-05-23T22:34:59.636Z,11.37
2023-05-23T22:38:02.467Z,7.28
2023-05-23T22:41:06.852Z,6.53
2023-05-23T22:44:09.681Z,8.48
2023-05-23T22:47:13.773Z,9.02
2023-05-23T22:50:17.045Z,12.73
2023-05-23T22:53:19.844Z,7.47
2023-05-23T22:56:24.179Z,9.25
2023-05-23T22:59:27.017Z,7.65
2023-05-23T23:02:30.065Z,11.40
2023-05-23T23:05:33.013Z,11.30
2023-05-23T23:08:35.986Z,7.35
2023-05-23T23:11:40.300Z,10.30
2023-05-23T23:14:43.046Z,9.50
2023-05-23T23:17:46.160Z,7.13
2023-05-23T23:20:49.069Z,8.40
2023-05-23T23:23:51.945Z,8.05
2023-05-23T23:26:56.133Z,6.20
2023-05-23T23:29:59.169Z,6.75
2023-05-23T23:33:02.071Z,8.77
2023-05-23T23:36:05.535Z,8.53
2023-05-23T23:39:08.337Z,9.00
2023-05-23T23:42:12.613Z,9.43
2023-05-23T23:45:15.419Z,9.30
2023-05-23T23:48:18.283Z,6.10
2023-05-23T23:51:21.337Z,10.00
2023-05-23T23:54:24.141Z,8.75
2023-05-23T23:57:28.314Z,9.55
